createdAt,value
2022-09-29T00:00:53.840Z,99.5
2022-09-29T00:02:03.029Z,99.5
2022-09-29T00:03:12.091Z,99.5
2022-09-29T00:05:30.427Z,99.5
2022-09-29T00:06:38.621Z,99.5
2022-09-29T00:07:47.793Z,99.5
2022-09-29T00:08:56.971Z,99.5
2022-09-29T00:10:06.145Z,99.5
2022-09-29T00:11:15.308Z,99.5
2022-09-29T00:12:24.533Z,99.5
2022-09-29T00:13:33.654Z,99.5
2022-09-29T00:14:42.831Z,99.5
2022-09-29T00:15:52.058Z,99.5
2022-09-29T00:17:01.193Z,99.5
2022-09-29T00:18:10.347Z,99.5
2022-09-29T00:19:19.523Z,99.5
2022-09-29T00:20:28.692Z,99.5
2022-09-29T00:21:36.877Z,99.5
2022-09-29T00:22:46.059Z,99.5
2022-09-29T00:23:55.235Z,99.5
2022-09-29T00:26:13.590Z,99.5
2022-09-29T00:27:22.747Z,99.5
2022-09-29T00:28:31.950Z,99.5
2022-09-29T00:29:41.083Z,99.5
2022-09-29T00:31:59.443Z,99.5
2022-09-29T00:33:08.618Z,99.5
2022-09-29T00:34:17.776Z,99.5
2022-09-29T00:35:26.953Z,99.5
2022-09-29T00:36:35.233Z,99.5
2022-09-29T00:37:44.334Z,99.5
2022-09-29T00:38:53.484Z,99.5
2022-09-29T00:40:02.690Z,99.5
2022-09-29T00:41:11.842Z,99.5
2022-09-29T00:42:21.006Z,99.5
2022-09-29T00:43:30.213Z,99.5
2022-09-29T00:44:39.352Z,99.5
2022-09-29T00:45:48.524Z,99.5
2022-09-29T00:46:57.707Z,99.5
2022-09-29T00:48:06.879Z,99.5
2022-09-29T00:49:16.036Z,99.5
2022-09-29T00:50:25.242Z,99.5
2022-09-29T00:51:33.504Z,99.5
2022-09-29T00:52:42.571Z,99.5
2022-09-29T00:53:51.798Z,99.5
2022-09-29T00:55:00.970Z,99.5
2022-09-29T00:56:10.208Z,99.5
2022-09-29T00:57:19.375Z,99.5
2022-09-29T00:58:28.560Z,99.5
2022-09-29T00:59:37.755Z,99.5
2022-09-29T01:00:46.785Z,99.5
2022-09-29T01:01:55.999Z,99.5
2022-09-29T01:03:05.184Z,99.5
2022-09-29T01:04:14.371Z,99.5
2022-09-29T01:05:23.565Z,99.5
2022-09-29T01:06:32.727Z,99.5
2022-09-29T01:07:40.859Z,99.5
2022-09-29T01:08:50.017Z,99.5
2022-09-29T01:09:59.239Z,99.5
2022-09-29T01:11:08.364Z,99.5
2022-09-29T01:13:26.737Z,99.5
2022-09-29T01:14:35.899Z,99.5
2022-09-29T01:15:45.048Z,99.5
2022-09-29T01:16:54.227Z,99.5
2022-09-29T01:18:03.456Z,99.5
2022-09-29T01:19:12.607Z,99.5
2022-09-29T01:20:21.777Z,99.5
2022-09-29T01:21:30.917Z,99.5
2022-09-29T01:22:39.101Z,99.5
2022-09-29T01:23:48.318Z,99.5
2022-09-29T01:24:57.456Z,99.5
2022-09-29T01:26:06.638Z,99.5
2022-09-29T01:27:15.855Z,99.5
2022-09-29T01:28:24.973Z,99.5
2022-09-29T01:29:34.192Z,99.5
2022-09-29T01:30:43.343Z,99.5
2022-09-29T01:31:52.502Z,99.5
2022-09-29T01:33:01.723Z,99.5
2022-09-29T01:34:10.884Z,99.5
2022-09-29T01:35:20.027Z,99.5
2022-09-29T01:36:29.175Z,99.5
2022-09-29T01:37:37.359Z,99.5
2022-09-29T01:38:46.531Z,99.5
2022-09-29T01:39:55.720Z,99.5
2022-09-29T01:41:04.870Z,99.5
2022-09-29T01:42:14.062Z,99.5
2022-09-29T01:43:23.228Z,99.5
2022-09-29T01:44:32.426Z,99.5
2022-09-29T01:45:41.569Z,99.5
2022-09-29T01:46:50.735Z,99.5
2022-09-29T01:47:59.917Z,99.5
2022-09-29T01:49:09.183Z,99.5
2022-09-29T01:50:18.292Z,99.5
2022-09-29T01:51:27.432Z,99.5
2022-09-29T01:52:35.629Z,99.5
2022-09-29T01:53:44.792Z,99.5
2022-09-29T01:54:53.960Z,99.5
2022-09-29T01:56:03.139Z,99.5
2022-09-29T01:57:12.308Z,99.5
2022-09-29T01:58:21.482Z,99.5
2022-09-29T01:59:30.675Z,99.5
2022-09-29T02:00:39.824Z,99.5
2022-09-29T02:01:48.998Z,99.5
2022-09-29T02:02:58.177Z,99.5
2022-09-29T02:04:07.342Z,99.5
2022-09-29T02:05:16.530Z,99.5
2022-09-29T02:06:25.700Z,99.5
2022-09-29T02:08:43.078Z,99.5
2022-09-29T02:09:52.218Z,99.5
2022-09-29T02:11:01.400Z,99.5
2022-09-29T02:12:10.572Z,99.5
2022-09-29T02:13:19.742Z,99.5
2022-09-29T02:14:28.914Z,99.5
2022-09-29T02:15:38.105Z,99.5
2022-09-29T02:16:47.253Z,99.5
2022-09-29T02:17:56.425Z,99.5
2022-09-29T02:19:05.596Z,99.5
2022-09-29T02:20:14.788Z,99.5
2022-09-29T02:21:23.957Z,99.5
2022-09-29T02:22:32.136Z,99.5
2022-09-29T02:23:41.308Z,99.5
2022-09-29T02:24:50.484Z,99.5
2022-09-29T02:25:59.651Z,99.5
2022-09-29T02:27:08.822Z,99.5
2022-09-29T02:28:17.995Z,99.5
2022-09-29T02:29:27.180Z,99.5
2022-09-29T02:30:36.345Z,99.5
2022-09-29T02:31:45.521Z,99.5
2022-09-29T02:32:54.744Z,99.5
2022-09-29T02:34:03.863Z,99.5
2022-09-29T02:35:13.045Z,99.5
2022-09-29T02:36:22.203Z,99.5
2022-09-29T02:37:30.398Z,99.5
2022-09-29T02:38:39.570Z,99.5
2022-09-29T02:39:48.742Z,99.5
2022-09-29T02:40:57.910Z,99.5
2022-09-29T02:42:07.081Z,99.5
2022-09-29T02:43:16.261Z,99.5
2022-09-29T02:44:25.425Z,99.5
2022-09-29T02:45:34.604Z,99.5
2022-09-29T02:46:43.769Z,99.5
2022-09-29T02:47:52.940Z,99.5
2022-09-29T02:49:02.114Z,99.5
2022-09-29T02:50:11.301Z,99.5
2022-09-29T02:51:20.466Z,99.5
2022-09-29T02:52:28.646Z,99.5
2022-09-29T02:53:37.817Z,99.5
2022-09-29T02:54:46.998Z,99.5
2022-09-29T02:55:56.170Z,99.5
2022-09-29T02:57:05.373Z,99.5
2022-09-29T02:58:14.519Z,99.5
2022-09-29T02:59:23.693Z,99.5
2022-09-29T03:00:32.861Z,99.5
2022-09-29T03:01:42.023Z,99.5
2022-09-29T03:02:51.229Z,99.5
2022-09-29T03:04:00.427Z,99.5
2022-09-29T03:05:09.555Z,99.5
2022-09-29T03:06:18.743Z,99.5
2022-09-29T03:07:26.915Z,99.5
2022-09-29T03:08:36.089Z,99.5
2022-09-29T03:09:45.263Z,99.5
2022-09-29T03:10:54.433Z,99.5
2022-09-29T03:12:03.623Z,99.5
2022-09-29T03:13:12.768Z,99.5
2022-09-29T03:14:21.977Z,99.5
2022-09-29T03:15:31.122Z,99.5
2022-09-29T03:16:40.303Z,99.5
2022-09-29T03:17:49.461Z,99.5
2022-09-29T03:18:58.646Z,99.5
2022-09-29T03:20:06.841Z,99.5
2022-09-29T03:21:15.026Z,99.5
2022-09-29T03:22:24.194Z,99.5
2022-09-29T03:23:32.451Z,99.5
2022-09-29T03:24:40.579Z,99.5
2022-09-29T03:25:49.761Z,99.5
2022-09-29T03:26:58.921Z,99.5
2022-09-29T03:28:08.167Z,99.5
2022-09-29T03:29:17.274Z,99.5
2022-09-29T03:30:26.459Z,99.5
2022-09-29T03:31:35.614Z,99.5
2022-09-29T03:32:44.812Z,99.5
2022-09-29T03:33:53.961Z,99.5
2022-09-29T03:35:03.167Z,99.5
2022-09-29T03:36:12.300Z,99.5
2022-09-29T03:37:21.475Z,99.5
2022-09-29T03:38:30.806Z,99.5
2022-09-29T03:39:38.960Z,99.5
2022-09-29T03:40:48.175Z,99.5
2022-09-29T03:41:57.329Z,99.5
2022-09-29T03:43:06.476Z,99.5
2022-09-29T03:44:15.690Z,99.5
2022-09-29T03:45:24.816Z,99.5
2022-09-29T03:46:34.015Z,99.5
2022-09-29T03:47:43.210Z,99.5
2022-09-29T03:48:52.224Z,99.5
2022-09-29T03:50:01.505Z,99.5
2022-09-29T03:51:10.603Z,99.5
2022-09-29T03:52:19.814Z,99.5
2022-09-29T03:53:28.913Z,99.5
2022-09-29T03:54:37.104Z,99.5
2022-09-29T03:55:46.275Z,99.5
2022-09-29T03:56:55.477Z,99.5
2022-09-29T03:58:04.640Z,99.5
2022-09-29T03:59:13.801Z,99.5
2022-09-29T04:00:22.989Z,99.5
2022-09-29T04:01:32.140Z,99.5
2022-09-29T04:02:41.323Z,99.5
2022-09-29T04:03:50.488Z,99.5
2022-09-29T04:04:59.657Z,99.5
2022-09-29T04:06:08.828Z,99.5
2022-09-29T04:07:18.010Z,99.5
2022-09-29T04:08:27.170Z,99.5
2022-09-29T04:09:35.366Z,99.5
2022-09-29T04:10:44.527Z,99.5
2022-09-29T04:11:53.712Z,99.5
2022-09-29T04:13:02.893Z,99.5
2022-09-29T04:14:12.047Z,99.5
2022-09-29T04:15:21.233Z,99.5
2022-09-29T04:16:30.401Z,99.5
2022-09-29T04:17:39.583Z,99.5
2022-09-29T04:18:48.749Z,99.5
2022-09-29T04:19:57.919Z,99.5
2022-09-29T04:21:07.095Z,99.5
2022-09-29T04:22:16.267Z,99.5
2022-09-29T04:23:25.447Z,99.5
2022-09-29T04:24:33.630Z,99.5
2022-09-29T04:25:42.799Z,99.5
2022-09-29T04:28:01.142Z,99.5
2022-09-29T04:29:10.316Z,99.5
2022-09-29T04:30:19.487Z,99.5
2022-09-29T04:31:28.664Z,99.5
2022-09-29T04:32:37.846Z,99.5
2022-09-29T04:33:47.009Z,99.5
2022-09-29T04:34:56.178Z,99.5
2022-09-29T04:36:05.376Z,99.5
2022-09-29T04:37:14.532Z,99.5
2022-09-29T04:38:23.701Z,99.5
2022-09-29T04:39:31.916Z,99.5
2022-09-29T04:40:41.078Z,99.5
2022-09-29T04:41:50.236Z,99.5
2022-09-29T04:42:59.404Z,99.5
2022-09-29T04:44:08.589Z,99.5
2022-09-29T04:45:17.772Z,99.5
2022-09-29T04:46:26.928Z,99.5
2022-09-29T04:47:36.100Z,99.5
2022-09-29T04:48:45.272Z,99.5
2022-09-29T04:49:54.452Z,99.5
2022-09-29T04:51:03.615Z,99.5
2022-09-29T04:52:12.794Z,99.5
2022-09-29T04:53:21.961Z,99.5
2022-09-29T04:54:30.161Z,99.5
2022-09-29T04:55:39.325Z,99.5
2022-09-29T04:56:48.502Z,99.5
2022-09-29T04:57:57.672Z,99.5
2022-09-29T04:59:05.872Z,99.5
2022-09-29T05:00:15.038Z,99.5
2022-09-29T05:01:24.218Z,99.5
2022-09-29T05:02:33.380Z,99.5
2022-09-29T05:03:42.605Z,99.5
2022-09-29T05:04:51.746Z,99.5
2022-09-29T05:06:00.900Z,99.5
2022-09-29T05:07:10.070Z,99.5
2022-09-29T05:08:19.246Z,99.5
2022-09-29T05:09:28.423Z,99.5
2022-09-29T05:10:37.587Z,99.5
2022-09-29T05:11:46.772Z,99.5
2022-09-29T05:12:55.939Z,99.5
2022-09-29T05:14:05.115Z,99.5
2022-09-29T05:15:13.310Z,99.5
2022-09-29T05:16:22.469Z,99.5
2022-09-29T05:17:31.645Z,99.5
2022-09-29T05:18:40.818Z,99.5
2022-09-29T05:19:49.992Z,99.5
2022-09-29T05:20:58.187Z,99.5
2022-09-29T05:22:06.378Z,99.5
2022-09-29T05:23:15.541Z,99.5
2022-09-29T05:24:24.724Z,99.5
2022-09-29T05:25:32.918Z,99.5
2022-09-29T05:26:41.107Z,99.5
2022-09-29T05:27:50.288Z,99.5
2022-09-29T05:28:59.440Z,99.5
2022-09-29T05:30:08.625Z,99.5
2022-09-29T05:31:17.799Z,99.5
2022-09-29T05:32:26.968Z,99.5
2022-09-29T05:33:36.139Z,99.5
2022-09-29T05:34:45.309Z,99.5
2022-09-29T05:35:54.482Z,99.5
2022-09-29T05:37:03.680Z,99.5
2022-09-29T05:38:12.839Z,99.5
2022-09-29T05:39:22.015Z,99.5
2022-09-29T05:40:31.173Z,99.5
2022-09-29T05:41:39.366Z,99.5
2022-09-29T05:42:48.549Z,99.5
2022-09-29T05:43:57.711Z,99.5
2022-09-29T05:45:06.890Z,99.5
2022-09-29T05:46:16.064Z,99.5
2022-09-29T05:47:25.244Z,99.5
2022-09-29T05:48:34.408Z,99.5
2022-09-29T05:49:43.573Z,99.5
2022-09-29T05:50:52.755Z,99.5
2022-09-29T05:52:01.924Z,99.5
2022-09-29T05:53:11.106Z,99.5
2022-09-29T05:54:20.271Z,99.5
2022-09-29T05:55:29.438Z,99.5
2022-09-29T05:56:37.636Z,99.5
2022-09-29T05:57:46.808Z,99.5
2022-09-29T05:58:56.006Z,99.5
2022-09-29T06:00:05.161Z,99.5
2022-09-29T06:01:14.355Z,99.5
2022-09-29T06:02:23.502Z,99.5
2022-09-29T06:03:32.721Z,99.5
2022-09-29T06:04:41.866Z,99.5
2022-09-29T06:05:51.010Z,99.5
2022-09-29T06:07:00.193Z,99.5
2022-09-29T06:08:09.371Z,99.5
2022-09-29T06:09:18.540Z,99.5
2022-09-29T06:10:27.822Z,99.5
2022-09-29T06:11:35.932Z,99.5
2022-09-29T06:12:45.085Z,99.5
2022-09-29T06:13:54.250Z,99.5
2022-09-29T06:15:03.410Z,99.5
2022-09-29T06:16:12.595Z,99.5
2022-09-29T06:17:21.764Z,99.5
2022-09-29T06:18:30.926Z,99.5
2022-09-29T06:19:40.151Z,99.5
2022-09-29T06:20:49.298Z,99.5
2022-09-29T06:21:58.449Z,99.5
2022-09-29T06:23:07.620Z,99.5
2022-09-29T06:24:16.797Z,99.5
2022-09-29T06:25:25.959Z,99.5
2022-09-29T06:26:34.171Z,99.5
2022-09-29T06:27:43.354Z,99.5
2022-09-29T06:28:52.496Z,99.5
2022-09-29T06:30:01.670Z,99.5
2022-09-29T06:31:10.852Z,99.5
2022-09-29T06:32:20.115Z,99.5
2022-09-29T06:33:29.238Z,99.5
2022-09-29T06:34:38.363Z,99.5
2022-09-29T06:35:47.542Z,99.5
2022-09-29T06:36:56.713Z,99.5
2022-09-29T06:38:05.879Z,99.5
2022-09-29T06:39:15.051Z,99.5
2022-09-29T06:40:24.220Z,99
2022-09-29T06:41:32.419Z,99.5
2022-09-29T06:42:41.592Z,98.5
2022-09-29T06:43:50.759Z,95.5
2022-09-29T06:44:59.929Z,94.5
2022-09-29T06:46:09.119Z,95
2022-09-29T06:47:17.315Z,96
2022-09-29T06:48:25.494Z,97
2022-09-29T06:49:34.657Z,97
2022-09-29T06:50:43.870Z,97
2022-09-29T06:51:53.026Z,95.5
2022-09-29T06:53:02.333Z,96
2022-09-29T06:54:11.487Z,96
2022-09-29T06:55:20.567Z,96.5
2022-09-29T06:56:29.698Z,95.5
2022-09-29T06:57:37.990Z,95.5
2022-09-29T06:58:46.079Z,94.5
2022-09-29T06:59:55.350Z,96
2022-09-29T07:01:04.434Z,94.5
2022-09-29T07:02:13.596Z,93.5
2022-09-29T07:03:22.830Z,95
2022-09-29T07:04:31.936Z,92
2022-09-29T07:05:41.101Z,92.5
2022-09-29T07:06:50.320Z,91
2022-09-29T07:07:59.463Z,92
2022-09-29T07:09:08.628Z,91.5
2022-09-29T07:10:17.806Z,92.5
2022-09-29T07:11:26.997Z,94
2022-09-29T07:12:36.153Z,95.5
2022-09-29T07:13:44.474Z,97
2022-09-29T07:14:53.659Z,98
2022-09-29T07:16:02.787Z,97
2022-09-29T07:17:11.863Z,97.5
2022-09-29T07:18:21.025Z,98
2022-09-29T07:19:30.257Z,99
2022-09-29T07:20:39.371Z,98.5
2022-09-29T07:21:48.546Z,98
2022-09-29T07:22:57.735Z,99
2022-09-29T07:24:06.885Z,99
2022-09-29T07:25:16.055Z,97
2022-09-29T07:26:25.232Z,98
2022-09-29T07:27:34.492Z,97.5
2022-09-29T07:28:42.592Z,98.5
2022-09-29T07:29:51.927Z,99
2022-09-29T07:31:01.076Z,97.5
2022-09-29T07:32:10.242Z,98
2022-09-29T07:33:19.421Z,96
2022-09-29T07:34:28.552Z,95.5
2022-09-29T07:35:37.627Z,94.5
2022-09-29T07:36:46.793Z,95
2022-09-29T07:37:55.965Z,91
2022-09-29T07:39:05.255Z,91.5
2022-09-29T07:40:14.321Z,91.5
2022-09-29T07:41:23.486Z,89.5
2022-09-29T07:42:32.689Z,90.5
2022-09-29T07:43:40.852Z,91
2022-09-29T07:44:50.132Z,92
2022-09-29T07:45:59.192Z,92.5
2022-09-29T07:47:08.377Z,90.5
2022-09-29T07:48:17.543Z,89.5
2022-09-29T07:49:26.724Z,89
2022-09-29T07:51:45.063Z,88.5
2022-09-29T07:52:54.237Z,88
2022-09-29T07:54:03.394Z,90
2022-09-29T07:55:12.581Z,93.5
2022-09-29T07:56:21.751Z,86.5
2022-09-29T07:57:30.920Z,85
2022-09-29T07:58:39.109Z,85.5
2022-09-29T07:59:48.280Z,85.5
2022-09-29T08:00:57.454Z,86.5
2022-09-29T08:02:06.624Z,86.5
2022-09-29T08:03:15.792Z,88
2022-09-29T08:04:24.990Z,88
2022-09-29T08:05:34.171Z,88.5
2022-09-29T08:06:43.376Z,90.5
2022-09-29T08:07:52.483Z,90.5
2022-09-29T08:09:01.662Z,90
2022-09-29T08:10:10.962Z,89
2022-09-29T08:11:20.108Z,88
2022-09-29T08:12:29.327Z,87
2022-09-29T08:13:37.399Z,88
2022-09-29T08:14:46.629Z,87.5
2022-09-29T08:15:55.732Z,86
2022-09-29T08:17:04.998Z,87.5
2022-09-29T08:18:14.050Z,85.5
2022-09-29T08:19:23.232Z,87
2022-09-29T08:20:32.422Z,87.5
2022-09-29T08:21:41.562Z,86.5
2022-09-29T08:22:50.745Z,87.5
2022-09-29T08:23:59.914Z,86
2022-09-29T08:25:09.084Z,86
2022-09-29T08:26:18.254Z,86.5
2022-09-29T08:27:27.549Z,84.5
2022-09-29T08:28:35.612Z,84
2022-09-29T08:29:44.933Z,85
2022-09-29T08:30:53.963Z,86
2022-09-29T08:32:03.131Z,86
2022-09-29T08:33:12.349Z,86
2022-09-29T08:34:21.471Z,86
2022-09-29T08:35:30.646Z,84
2022-09-29T08:36:39.822Z,85.5
2022-09-29T08:37:49.008Z,82
2022-09-29T08:38:58.174Z,81.5
2022-09-29T08:40:07.337Z,83
2022-09-29T08:41:16.506Z,83
2022-09-29T08:42:25.726Z,82.5
2022-09-29T08:43:34.015Z,83.5
2022-09-29T08:44:43.048Z,83.5
2022-09-29T08:45:52.220Z,81.5
2022-09-29T08:47:01.393Z,82.5
2022-09-29T08:48:10.586Z,83
2022-09-29T08:49:19.857Z,80.5
2022-09-29T08:50:27.921Z,83.5
2022-09-29T08:52:46.279Z,80.5
2022-09-29T08:53:55.539Z,80.5
2022-09-29T08:55:04.728Z,79
2022-09-29T08:56:13.791Z,81
2022-09-29T08:57:23.061Z,82
2022-09-29T08:58:32.132Z,83.5
2022-09-29T08:59:41.300Z,80.5
2022-09-29T09:00:50.468Z,81.5
2022-09-29T09:01:59.655Z,80
2022-09-29T09:03:08.833Z,80
2022-09-29T09:04:18.029Z,78.5
2022-09-29T09:05:26.249Z,79
2022-09-29T09:06:35.396Z,82.5
2022-09-29T09:07:44.530Z,81
2022-09-29T09:08:53.702Z,82
2022-09-29T09:10:02.876Z,82
2022-09-29T09:11:12.054Z,81
2022-09-29T09:12:21.216Z,80
2022-09-29T09:13:30.394Z,78.5
2022-09-29T09:14:39.556Z,79
2022-09-29T09:15:48.741Z,78
2022-09-29T09:16:57.908Z,79.5
2022-09-29T09:18:07.079Z,78.5
2022-09-29T09:19:16.249Z,78.5
2022-09-29T09:20:24.433Z,81
2022-09-29T09:21:33.605Z,77.5
2022-09-29T09:22:42.788Z,78
2022-09-29T09:23:51.960Z,80.5
2022-09-29T09:25:01.119Z,78.5
2022-09-29T09:26:10.294Z,77
2022-09-29T09:27:19.481Z,76
2022-09-29T09:28:28.637Z,76.5
2022-09-29T09:29:37.811Z,77
2022-09-29T09:30:46.981Z,77
2022-09-29T09:31:56.158Z,77
2022-09-29T09:33:05.317Z,76.5
2022-09-29T09:34:14.642Z,77
2022-09-29T09:35:22.798Z,75.5
2022-09-29T09:36:32.001Z,73.5
2022-09-29T09:37:41.051Z,74.5
2022-09-29T09:38:50.246Z,76
2022-09-29T09:39:59.375Z,74
2022-09-29T09:41:08.552Z,71.5
2022-09-29T09:42:17.726Z,66.5
2022-09-29T09:43:26.894Z,69.5
2022-09-29T09:44:36.070Z,73.5
2022-09-29T09:45:45.257Z,75.5
2022-09-29T09:46:54.407Z,78
2022-09-29T09:48:03.581Z,78
2022-09-29T09:49:12.746Z,75.5
2022-09-29T09:50:20.942Z,75.5
2022-09-29T09:51:30.161Z,73.5
2022-09-29T09:52:39.298Z,72.5
2022-09-29T09:53:48.453Z,72.5
2022-09-29T09:54:57.639Z,73.5
2022-09-29T09:56:06.794Z,75
2022-09-29T09:57:15.976Z,72.5
2022-09-29T09:58:25.150Z,71.5
2022-09-29T09:59:34.311Z,73.5
2022-09-29T10:00:43.499Z,68
2022-09-29T10:01:52.663Z,66.5
2022-09-29T10:03:01.829Z,68.5
2022-09-29T10:04:11.006Z,71
2022-09-29T10:05:19.190Z,70.5
2022-09-29T10:06:28.391Z,68
2022-09-29T10:07:37.540Z,70
2022-09-29T10:09:55.884Z,72
2022-09-29T10:11:05.065Z,70.5
2022-09-29T10:12:14.223Z,69
2022-09-29T10:13:23.393Z,71.5
2022-09-29T10:14:32.561Z,70.5
2022-09-29T10:15:41.746Z,70
2022-09-29T10:16:50.943Z,69
2022-09-29T10:18:00.094Z,66.5
2022-09-29T10:19:09.261Z,67.5
2022-09-29T10:20:17.444Z,71
2022-09-29T10:22:35.793Z,78
2022-09-29T10:23:45.044Z,73.5
2022-09-29T10:24:54.185Z,71
2022-09-29T10:26:03.306Z,69
2022-09-29T10:27:12.474Z,68.5
2022-09-29T10:28:21.656Z,64
2022-09-29T10:29:30.817Z,65.5
2022-09-29T10:30:39.993Z,63
2022-09-29T10:31:49.170Z,66.5
2022-09-29T10:32:58.334Z,68.5
2022-09-29T10:34:07.510Z,66.5
2022-09-29T10:35:15.689Z,67
2022-09-29T10:36:24.877Z,69
2022-09-29T10:37:34.036Z,67
2022-09-29T10:38:43.229Z,64.5
2022-09-29T10:39:52.394Z,63.5
2022-09-29T10:41:01.566Z,65.5
2022-09-29T10:43:19.919Z,61
2022-09-29T10:44:29.075Z,61
2022-09-29T10:45:38.249Z,61
2022-09-29T10:46:47.414Z,63
2022-09-29T10:47:56.587Z,61.5
2022-09-29T10:49:05.760Z,62
2022-09-29T10:50:13.958Z,61
2022-09-29T10:51:23.115Z,60
2022-09-29T10:52:32.303Z,59.5
2022-09-29T10:53:41.474Z,60.5
2022-09-29T10:54:50.644Z,60.5
2022-09-29T10:55:59.816Z,64
2022-09-29T10:57:08.987Z,65
2022-09-29T10:58:18.157Z,67.5
2022-09-29T10:59:27.330Z,69.5
2022-09-29T11:00:36.515Z,71
2022-09-29T11:02:54.844Z,69.5
2022-09-29T11:04:04.016Z,64.5
2022-09-29T11:05:12.220Z,67
2022-09-29T11:06:21.378Z,64
2022-09-29T11:07:30.558Z,63.5
2022-09-29T11:08:39.723Z,65.5
2022-09-29T11:09:48.890Z,67
2022-09-29T11:10:58.073Z,64.5
2022-09-29T11:12:07.233Z,62.5
2022-09-29T11:13:16.417Z,62
2022-09-29T11:14:25.584Z,59
2022-09-29T11:15:34.762Z,59
2022-09-29T11:17:53.095Z,56.5
2022-09-29T11:19:02.267Z,58
2022-09-29T11:20:10.462Z,58.5
2022-09-29T11:21:19.624Z,56
2022-09-29T11:22:28.803Z,61
2022-09-29T11:23:37.975Z,61
2022-09-29T11:24:47.146Z,59.5
2022-09-29T11:25:56.323Z,60
2022-09-29T11:27:05.501Z,60
2022-09-29T11:28:14.672Z,63
2022-09-29T11:29:23.847Z,59.5
2022-09-29T11:30:33.009Z,57.5
2022-09-29T11:31:42.183Z,59
2022-09-29T11:32:51.404Z,62
2022-09-29T11:34:00.523Z,61
2022-09-29T11:35:08.720Z,61
2022-09-29T11:36:17.886Z,57.5
2022-09-29T11:37:27.074Z,57
2022-09-29T11:38:36.230Z,59.5
2022-09-29T11:39:45.417Z,63
2022-09-29T11:40:54.573Z,58.5
2022-09-29T11:42:03.753Z,57
2022-09-29T11:43:12.914Z,53.5
2022-09-29T11:44:22.095Z,57.5
2022-09-29T11:45:31.265Z,53
2022-09-29T11:46:40.436Z,52
2022-09-29T11:47:49.610Z,50
2022-09-29T11:48:58.777Z,50.5
2022-09-29T11:50:07.003Z,49.5
2022-09-29T11:51:16.137Z,52.5
2022-09-29T11:52:25.312Z,56.5
2022-09-29T11:53:34.486Z,53.5
2022-09-29T11:54:43.666Z,56
2022-09-29T11:55:52.828Z,57.5
2022-09-29T11:57:02.005Z,58.5
2022-09-29T11:58:11.172Z,60.5
2022-09-29T11:59:20.337Z,55.5
2022-09-29T12:00:29.513Z,55
2022-09-29T12:01:38.683Z,53.5
2022-09-29T12:03:57.027Z,57
2022-09-29T12:05:05.221Z,60
2022-09-29T12:06:14.393Z,58.5
2022-09-29T12:07:23.571Z,57.5
2022-09-29T12:08:32.733Z,58
2022-09-29T12:09:41.919Z,58.5
2022-09-29T12:10:51.083Z,57
2022-09-29T12:12:00.243Z,57
2022-09-29T12:14:18.586Z,55.5
2022-09-29T12:15:27.765Z,56
2022-09-29T12:16:36.934Z,55
2022-09-29T12:17:46.104Z,54
2022-09-29T12:18:55.279Z,55.5
2022-09-29T12:20:03.471Z,58
2022-09-29T12:21:12.663Z,59.5
2022-09-29T12:22:21.887Z,57.5
2022-09-29T12:23:30.985Z,59
2022-09-29T12:24:40.155Z,58
2022-09-29T12:25:49.322Z,58.5
2022-09-29T12:26:58.486Z,56.5
2022-09-29T12:28:07.668Z,57.5
2022-09-29T12:29:16.839Z,57
2022-09-29T12:30:26.027Z,58
2022-09-29T12:31:35.197Z,56
2022-09-29T12:32:44.362Z,59
2022-09-29T12:33:53.524Z,57
2022-09-29T12:35:01.721Z,55
2022-09-29T12:36:10.888Z,57
2022-09-29T12:37:20.061Z,55
2022-09-29T12:38:29.244Z,55
2022-09-29T12:39:38.398Z,56
2022-09-29T12:40:47.583Z,57
2022-09-29T12:41:55.768Z,57
2022-09-29T12:43:04.948Z,56
2022-09-29T12:44:14.119Z,56.5
2022-09-29T12:45:23.290Z,57
2022-09-29T12:46:32.463Z,56.5
2022-09-29T12:47:41.629Z,58
2022-09-29T12:48:50.808Z,57
2022-09-29T12:49:59.983Z,55.5
2022-09-29T12:51:09.157Z,55
2022-09-29T12:52:18.314Z,55
2022-09-29T12:53:27.487Z,56.5
2022-09-29T12:54:36.655Z,55.5
2022-09-29T12:55:45.850Z,57
2022-09-29T12:56:54.018Z,53.5
2022-09-29T12:58:03.191Z,53.5
2022-09-29T12:59:12.363Z,53
2022-09-29T13:00:21.535Z,50
2022-09-29T13:01:30.707Z,52.5
2022-09-29T13:02:39.909Z,49.5
2022-09-29T13:03:49.047Z,52
2022-09-29T13:04:58.219Z,50.5
2022-09-29T13:06:07.412Z,50.5
2022-09-29T13:07:16.571Z,54.5
2022-09-29T13:08:25.736Z,51.5
2022-09-29T13:09:34.904Z,53.5
2022-09-29T13:10:44.092Z,56.5
2022-09-29T13:11:52.275Z,56.5
2022-09-29T13:13:01.446Z,60.5
2022-09-29T13:14:10.615Z,59
2022-09-29T13:15:19.809Z,58.5
2022-09-29T13:16:28.965Z,57
2022-09-29T13:17:38.132Z,56
2022-09-29T13:18:47.314Z,54.5
2022-09-29T13:19:56.482Z,55.5
2022-09-29T13:21:05.643Z,54.5
2022-09-29T13:22:14.832Z,55.5
2022-09-29T13:23:23.989Z,53.5
2022-09-29T13:26:51.514Z,49.5
2022-09-29T13:27:59.690Z,48
2022-09-29T13:29:08.875Z,49
2022-09-29T13:30:18.030Z,48
2022-09-29T13:31:27.210Z,52
2022-09-29T13:32:36.384Z,51.5
2022-09-29T13:33:45.580Z,51.5
2022-09-29T13:34:54.728Z,51.5
2022-09-29T13:36:03.913Z,54
2022-09-29T13:37:13.083Z,55
2022-09-29T13:38:22.247Z,51.5
2022-09-29T13:39:31.409Z,51.5
2022-09-29T13:40:40.589Z,52
2022-09-29T13:41:49.760Z,47
2022-09-29T13:44:07.127Z,50.5
2022-09-29T13:45:15.315Z,48.5
2022-09-29T13:47:32.685Z,49
2022-09-29T13:48:41.843Z,49
2022-09-29T13:49:51.025Z,51
2022-09-29T13:51:00.203Z,48.5
2022-09-29T13:52:09.361Z,49
2022-09-29T13:53:18.531Z,50.5
2022-09-29T13:54:27.712Z,52
2022-09-29T13:55:36.875Z,52.5
2022-09-29T13:56:46.056Z,51.5
2022-09-29T13:57:55.222Z,45.5
2022-09-29T13:59:03.420Z,48
2022-09-29T14:00:11.612Z,46.5
2022-09-29T14:01:20.769Z,51
2022-09-29T14:02:29.951Z,51
2022-09-29T14:03:39.127Z,50.5
2022-09-29T14:04:48.291Z,50
2022-09-29T14:05:57.466Z,51.5
2022-09-29T14:07:06.635Z,49.5
2022-09-29T14:08:15.824Z,53.5
2022-09-29T14:09:24.991Z,54
2022-09-29T14:10:34.148Z,53
2022-09-29T14:11:43.331Z,55
2022-09-29T14:14:01.674Z,58
2022-09-29T14:15:09.856Z,58.5
2022-09-29T14:16:19.028Z,54.5
2022-09-29T14:17:28.196Z,51
2022-09-29T14:18:37.375Z,53
2022-09-29T14:19:46.551Z,53.5
2022-09-29T14:20:55.720Z,52
2022-09-29T14:22:04.899Z,51
2022-09-29T14:23:14.060Z,54
2022-09-29T14:24:23.258Z,52
2022-09-29T14:25:32.410Z,54
2022-09-29T14:26:41.588Z,58
2022-09-29T14:27:50.758Z,57.5
2022-09-29T14:28:59.929Z,55
2022-09-29T14:30:08.112Z,52.5
2022-09-29T14:31:17.293Z,53.5
2022-09-29T14:32:26.456Z,51.5
2022-09-29T14:33:35.621Z,50
2022-09-29T14:34:44.809Z,50
2022-09-29T14:35:53.977Z,51
2022-09-29T14:37:03.152Z,52.5
2022-09-29T14:38:12.317Z,56.5
2022-09-29T14:39:21.501Z,50
2022-09-29T14:40:30.669Z,50.5
2022-09-29T14:41:39.841Z,50.5
2022-09-29T14:42:49.015Z,48.5
2022-09-29T14:43:58.181Z,51
2022-09-29T14:46:15.544Z,52.5
2022-09-29T14:47:24.713Z,51
2022-09-29T14:48:33.887Z,53.5
2022-09-29T14:49:43.059Z,55.5
2022-09-29T14:50:52.238Z,58
2022-09-29T14:52:01.393Z,57.5
2022-09-29T14:53:10.571Z,56
2022-09-29T14:54:19.756Z,53.5
2022-09-29T14:55:27.952Z,52
2022-09-29T14:56:36.138Z,50.5
2022-09-29T14:57:44.333Z,53
2022-09-29T14:58:52.505Z,52.5
2022-09-29T15:00:01.684Z,50.5
2022-09-29T15:01:10.858Z,50
2022-09-29T15:02:20.032Z,53
2022-09-29T15:03:29.200Z,53.5
2022-09-29T15:04:38.369Z,53.5
2022-09-29T15:05:47.553Z,54.5
2022-09-29T15:06:56.720Z,53
2022-09-29T15:08:05.896Z,55.5
2022-09-29T15:09:15.068Z,58
2022-09-29T15:10:24.240Z,52.5
2022-09-29T15:11:33.420Z,53
2022-09-29T15:12:42.587Z,56.5
2022-09-29T15:13:50.765Z,57
2022-09-29T15:14:59.943Z,58
2022-09-29T15:16:09.124Z,54.5
2022-09-29T15:17:18.288Z,54.5
2022-09-29T15:18:27.459Z,54.5
2022-09-29T15:19:36.647Z,50
2022-09-29T15:20:45.801Z,48
2022-09-29T15:21:54.975Z,49.5
2022-09-29T15:23:04.156Z,48
2022-09-29T15:24:13.320Z,50.5
2022-09-29T15:25:22.494Z,50.5
2022-09-29T15:26:31.713Z,57
2022-09-29T15:27:40.830Z,49.5
2022-09-29T15:28:49.019Z,51.5
2022-09-29T15:29:58.195Z,51
2022-09-29T15:31:07.362Z,52
2022-09-29T15:32:16.543Z,49.5
2022-09-29T15:33:25.710Z,51.5
2022-09-29T15:34:34.881Z,56.5
2022-09-29T15:35:44.064Z,52.5
2022-09-29T15:36:53.239Z,50.5
2022-09-29T15:38:02.409Z,51.5
2022-09-29T15:39:11.574Z,51.5
2022-09-29T15:40:20.737Z,52.5
2022-09-29T15:41:29.916Z,54
2022-09-29T15:42:39.092Z,54
2022-09-29T15:43:47.275Z,51.5
2022-09-29T15:44:56.446Z,52.5
2022-09-29T15:46:05.616Z,52
2022-09-29T15:47:14.817Z,54
2022-09-29T15:48:23.964Z,50
2022-09-29T15:49:33.137Z,51.5
2022-09-29T15:50:42.324Z,53
2022-09-29T15:51:51.482Z,52.5
2022-09-29T15:53:00.659Z,52
2022-09-29T15:54:09.822Z,55
2022-09-29T15:55:19.002Z,50.5
2022-09-29T15:56:28.185Z,51
2022-09-29T15:57:37.331Z,51
2022-09-29T15:58:45.525Z,53
2022-09-29T15:59:54.710Z,54
2022-09-29T16:01:03.917Z,55
2022-09-29T16:02:13.041Z,54.5